sensor_id;sensor_type;location;lat;lon;timestamp;pressure;altitude;pressure_sealevel;temperature;humidity
72961;BME280;61141;46.204;19.774;2023-05-25T00:01:58;100467.37;;;16.20;92.83
72961;BME280;61141;46.204;19.774;2023-05-25T01:52:51;100502.44;;;15.19;100.00
72961;BME280;61141;46.204;19.774;2023-05-25T01:55:59;100504.78;;;15.13;100.00
72961;BME280;61141;46.204;19.774;2023-05-25T01:59:06;100506.78;;;15.23;100.00
72961;BME280;61141;46.204;19.774;2023-05-25T02:02:12;100495.31;;;15.25;100.00
72961;BME280;61141;46.204;19.774;2023-05-25T02:05:18;100506.00;;;14.98;100.00
72961;BME280;61141;46.204;19.774;2023-05-25T02:08:22;100503.25;;;15.16;100.00
72961;BME280;61141;46.204;19.774;2023-05-25T02:11:25;100501.28;;;15.13;100.00
72961;BME280;61141;46.204;19.774;2023-05-25T02:14:29;100487.47;;;15.06;100.00
72961;BME280;61141;46.204;19.774;2023-05-25T02:17:32;100499.31;;;15.10;100.00
72961;BME280;61141;46.204;19.774;2023-05-25T02:20:35;100496.12;;;15.15;100.00
72961;BME280;61141;46.204;19.774;2023-05-25T02:23:38;100504.03;;;15.09;100.00
72961;BME280;61141;46.204;19.774;2023-05-25T02:26:42;100510.72;;;15.22;100.00
72961;BME280;61141;46.204;19.774;2023-05-25T02:29:44;100510.69;;;15.19;100.00
72961;BME280;61141;46.204;19.774;2023-05-25T02:32:47;100507.56;;;15.17;100.00
72961;BME280;61141;46.204;19.774;2023-05-25T02:35:52;100486.31;;;14.86;100.00
72961;BME280;61141;46.204;19.774;2023-05-25T02:38:55;100517.03;;;15.09;100.00
72961;BME280;61141;46.204;19.774;2023-05-25T02:41:58;100521.75;;;15.12;100.00
72961;BME280;61141;46.204;19.774;2023-05-25T02:45:01;100508.37;;;14.93;100.00
72961;BME280;61141;46.204;19.774;2023-05-25T02:48:04;100537.53;;;15.18;100.00
72961;BME280;61141;46.204;19.774;2023-05-25T02:51:08;100540.69;;;15.17;100.00
72961;BME280;61141;46.204;19.774;2023-05-25T02:54:11;100506.78;;;14.92;100.00
72961;BME280;61141;46.204;19.774;2023-05-25T02:57:14;100536.75;;;15.07;100.00
72961;BME280;61141;46.204;19.774;2023-05-25T03:00:17;100543.47;;;14.99;100.00
72961;BME280;61141;46.204;19.774;2023-05-25T03:03:22;100543.44;;;15.06;100.00
72961;BME280;61141;46.204;19.774;2023-05-25T03:06:25;100542.66;;;15.06;100.00
72961;BME280;61141;46.204;19.774;2023-05-25T03:09:28;100549.37;;;15.05;100.00
72961;BME280;61141;46.204;19.774;2023-05-25T03:12:31;100528.84;;;14.81;100.00
72961;BME280;61141;46.204;19.774;2023-05-25T03:15:34;100544.63;;;15.12;100.00
72961;BME280;61141;46.204;19.774;2023-05-25T03:18:38;100531.63;;;14.99;100.00
72961;BME280;61141;46.204;19.774;2023-05-25T03:21:41;100554.84;;;14.94;100.00
72961;BME280;61141;46.204;19.774;2023-05-25T03:24:44;100553.28;;;14.90;100.00
72961;BME280;61141;46.204;19.774;2023-05-25T03:27:52;100548.16;;;14.95;100.00
72961;BME280;61141;46.204;19.774;2023-05-25T03:30:55;100561.19;;;15.09;100.00
72961;BME280;61141;46.204;19.774;2023-05-25T03:33:59;100557.66;;;15.05;100.00
72961;BME280;61141;46.204;19.774;2023-05-25T03:37:02;100531.19;;;14.72;100.00
72961;BME280;61141;46.204;19.774;2023-05-25T03:40:06;100564.34;;;14.93;100.00
72961;BME280;61141;46.204;19.774;2023-05-25T03:43:11;100567.47;;;15.02;100.00
72961;BME280;61141;46.204;19.774;2023-05-25T03:46:14;100558.81;;;15.07;100.00
72961;BME280;61141;46.204;19.774;2023-05-25T03:49:18;100571.41;;;15.37;100.00
72961;BME280;61141;46.204;19.774;2023-05-25T03:52:21;100542.25;;;14.97;100.00
72961;BME280;61141;46.204;19.774;2023-05-25T03:55:23;100577.75;;;15.48;100.00
72961;BME280;61141;46.204;19.774;2023-05-25T03:58:26;100580.88;;;15.60;100.00
72961;BME280;61141;46.204;19.774;2023-05-25T04:01:29;100577.34;;;15.46;100.00
72961;BME280;61141;46.204;19.774;2023-05-25T04:04:32;100567.47;;;15.41;100.00
72961;BME280;61141;46.204;19.774;2023-05-25T04:07:35;100583.25;;;15.41;100.00
72961;BME280;61141;46.204;19.774;2023-05-25T04:10:38;100579.31;;;15.56;100.00
72961;BME280;61141;46.204;19.774;2023-05-25T04:13:41;100569.47;;;15.51;100.00
72961;BME280;61141;46.204;19.774;2023-05-25T04:16:45;100586.41;;;15.60;100.00
72961;BME280;61141;46.204;19.774;2023-05-25T04:19:48;100582.06;;;15.59;100.00
72961;BME280;61141;46.204;19.774;2023-05-25T04:22:51;100563.91;;;15.58;100.00
72961;BME280;61141;46.204;19.774;2023-05-25T04:25:54;100558.75;;;15.78;100.00
72961;BME280;61141;46.204;19.774;2023-05-25T04:28:57;100592.69;;;15.78;100.00
72961;BME280;61141;46.204;19.774;2023-05-25T04:32:00;100559.97;;;15.70;100.00
72961;BME280;61141;46.204;19.774;2023-05-25T04:35:06;100572.13;;;15.94;100.00
72961;BME280;61141;46.204;19.774;2023-05-25T04:38:10;100614.69;;;16.10;100.00
72961;BME280;61141;46.204;19.774;2023-05-25T04:41:14;100597.69;;;16.22;100.00
72961;BME280;61141;46.204;19.774;2023-05-25T04:44:18;100605.22;;;16.15;100.00
72961;BME280;61141;46.204;19.774;2023-05-25T04:47:22;100619.31;;;16.49;100.00
72961;BME280;61141;46.204;19.774;2023-05-25T04:50:26;100619.66;;;16.58;100.00
72961;BME280;61141;46.204;19.774;2023-05-25T04:53:29;100624.75;;;16.73;100.00
72961;BME280;61141;46.204;19.774;2023-05-25T04:56:34;100616.06;;;16.68;100.00
72961;BME280;61141;46.204;19.774;2023-05-25T04:59:38;100621.41;;;16.96;100.00
72961;BME280;61141;46.204;19.774;2023-05-25T05:02:41;100620.72;;;16.81;100.00
72961;BME280;61141;46.204;19.774;2023-05-25T05:05:44;100620.75;;;16.74;100.00
72961;BME280;61141;46.204;19.774;2023-05-25T05:08:48;100601.03;;;16.65;100.00
72961;BME280;61141;46.204;19.774;2023-05-25T05:11:51;100632.81;;;17.09;100.00
72961;BME280;61141;46.204;19.774;2023-05-25T05:14:54;100631.81;;;16.81;100.00
72961;BME280;61141;46.204;19.774;2023-05-25T05:17:58;100634.44;;;16.99;100.00
72961;BME280;61141;46.204;19.774;2023-05-25T05:21:01;100635.44;;;17.26;100.00
72961;BME280;61141;46.204;19.774;2023-05-25T05:24:04;100638.19;;;17.30;100.00
72961;BME280;61141;46.204;19.774;2023-05-25T05:27:07;100640.78;;;17.51;100.00
72961;BME280;61141;46.204;19.774;2023-05-25T05:30:11;100642.47;;;17.38;100.00
72961;BME280;61141;46.204;19.774;2023-05-25T05:33:17;100637.37;;;17.81;100.00
72961;BME280;61141;46.204;19.774;2023-05-25T05:36:20;100633.87;;;18.10;99.58
72961;BME280;61141;46.204;19.774;2023-05-25T05:39:23;100616.44;;;18.13;98.49
72961;BME280;61141;46.204;19.774;2023-05-25T05:42:26;100631.69;;;18.62;95.30
72961;BME280;61141;46.204;19.774;2023-05-25T05:45:29;100640.34;;;18.95;94.12
72961;BME280;61141;46.204;19.774;2023-05-25T05:48:32;100627.19;;;19.02;92.08
72961;BME280;61141;46.204;19.774;2023-05-25T05:51:35;100649.94;;;18.63;94.47
72961;BME280;61141;46.204;19.774;2023-05-25T05:54:38;100628.09;;;18.92;93.02
72961;BME280;61141;46.204;19.774;2023-05-25T05:57:42;100649.66;;;19.38;91.44
72961;BME280;61141;46.204;19.774;2023-05-25T06:00:45;100650.00;;;19.13;91.20
72961;BME280;61141;46.204;19.774;2023-05-25T06:03:48;100658.59;;;19.22;90.92
72961;BME280;61141;46.204;19.774;2023-05-25T06:06:54;100653.34;;;19.01;91.54
72961;BME280;61141;46.204;19.774;2023-05-25T06:09:57;100630.00;;;18.72;91.57
72961;BME280;61141;46.204;19.774;2023-05-25T06:13:00;100662.50;;;19.25;90.27
72961;BME280;61141;46.204;19.774;2023-05-25T06:16:03;100657.44;;;19.70;88.06
72961;BME280;61141;46.204;19.774;2023-05-25T06:19:06;100659.12;;;19.41;89.07
72961;BME280;61141;46.204;19.774;2023-05-25T06:22:10;100640.25;;;19.02;90.67
72961;BME280;61141;46.204;19.774;2023-05-25T06:25:12;100653.16;;;19.15;90.45
72961;BME280;61141;46.204;19.774;2023-05-25T06:28:16;100668.34;;;19.07;90.55
72961;BME280;61141;46.204;19.774;2023-05-25T06:31:18;100656.66;;;19.69;88.55
72961;BME280;61141;46.204;19.774;2023-05-25T06:34:21;100664.16;;;19.96;86.51
72961;BME280;61141;46.204;19.774;2023-05-25T06:37:26;100640.56;;;20.04;86.09
72961;BME280;61141;46.204;19.774;2023-05-25T06:40:29;100630.81;;;19.49;86.45
72961;BME280;61141;46.204;19.774;2023-05-25T06:43:31;100667.66;;;20.19;85.19
72961;BME280;61141;46.204;19.774;2023-05-25T06:46:35;100659.28;;;19.80;86.31
72961;BME280;61141;46.204;19.774;2023-05-25T06:49:38;100670.00;;;20.01;85.76
72961;BME280;61141;46.204;19.774;2023-05-25T06:52:41;100668.91;;;20.18;85.15
72961;BME280;61141;46.204;19.774;2023-05-25T06:55:44;100669.16;;;20.04;84.07
72961;BME280;61141;46.204;19.774;2023-05-25T06:58:47;100666.63;;;19.67;86.82
72961;BME280;61141;46.204;19.774;2023-05-25T07:01:50;100644.28;;;19.74;86.33
72961;BME280;61141;46.204;19.774;2023-05-25T07:04:53;100673.03;;;20.10;85.19
72961;BME280;61141;46.204;19.774;2023-05-25T07:07:56;100664.63;;;20.33;84.76
72961;BME280;61141;46.204;19.774;2023-05-25T07:10:59;100669.28;;;19.97;85.40
72961;BME280;61141;46.204;19.774;2023-05-25T07:14:02;100683.50;;;20.22;85.00
72961;BME280;61141;46.204;19.774;2023-05-25T07:17:05;100680.78;;;20.19;84.86
72961;BME280;61141;46.204;19.774;2023-05-25T07:20:08;100675.28;;;20.94;82.68
72961;BME280;61141;46.204;19.774;2023-05-25T07:23:12;100670.59;;;21.27;80.30
72961;BME280;61141;46.204;19.774;2023-05-25T07:26:15;100675.75;;;21.60;79.00
72961;BME280;61141;46.204;19.774;2023-05-25T07:29:18;100679.56;;;21.18;80.32
72961;BME280;61141;46.204;19.774;2023-05-25T07:32:21;100681.56;;;21.66;79.52
72961;BME280;61141;46.204;19.774;2023-05-25T07:35:24;100674.69;;;21.22;79.37
72961;BME280;61141;46.204;19.774;2023-05-25T07:38:27;100677.47;;;21.54;78.86
72961;BME280;61141;46.204;19.774;2023-05-25T07:41:30;100687.94;;;21.99;77.59
72961;BME280;61141;46.204;19.774;2023-05-25T07:44:33;100683.31;;;21.44;78.24
72961;BME280;61141;46.204;19.774;2023-05-25T07:47:36;100678.66;;;21.21;79.15
72961;BME280;61141;46.204;19.774;2023-05-25T07:50:39;100688.25;;;21.85;77.72
72961;BME280;61141;46.204;19.774;2023-05-25T07:53:43;100703.62;;;21.77;76.22
72961;BME280;61141;46.204;19.774;2023-05-25T07:56:45;100697.03;;;21.87;75.24
72961;BME280;61141;46.204;19.774;2023-05-25T07:59:49;100687.34;;;22.49;74.42
72961;BME280;61141;46.204;19.774;2023-05-25T08:02:51;100685.03;;;22.47;73.13
72961;BME280;61141;46.204;19.774;2023-05-25T08:05:55;100689.00;;;22.34;73.65
72961;BME280;61141;46.204;19.774;2023-05-25T08:08:57;100699.84;;;22.73;71.64
72961;BME280;61141;46.204;19.774;2023-05-25T08:12:00;100687.00;;;22.34;73.22
72961;BME280;61141;46.204;19.774;2023-05-25T08:15:23;100704.87;;;22.20;72.28
72961;BME280;61141;46.204;19.774;2023-05-25T08:18:28;100702.31;;;22.71;71.19
72961;BME280;61141;46.204;19.774;2023-05-25T08:21:30;100688.09;;;22.65;70.44
72961;BME280;61141;46.204;19.774;2023-05-25T08:24:36;100702.59;;;22.60;71.47
72961;BME280;61141;46.204;19.774;2023-05-25T08:27:39;100704.44;;;22.51;70.73
72961;BME280;61141;46.204;19.774;2023-05-25T08:30:44;100700.38;;;21.46;74.00
72961;BME280;61141;46.204;19.774;2023-05-25T08:33:47;100707.28;;;21.74;73.87
72961;BME280;61141;46.204;19.774;2023-05-25T08:36:50;100696.53;;;22.49;70.73
72961;BME280;61141;46.204;19.774;2023-05-25T08:39:52;100697.72;;;22.48;69.77
72961;BME280;61141;46.204;19.774;2023-05-25T08:42:55;100686.94;;;23.29;66.88
72961;BME280;61141;46.204;19.774;2023-05-25T08:46:05;100704.28;;;23.62;66.46
72961;BME280;61141;46.204;19.774;2023-05-25T08:49:13;100698.47;;;23.57;66.60
72961;BME280;61141;46.204;19.774;2023-05-25T08:52:21;100708.41;;;23.32;64.77
72961;BME280;61141;46.204;19.774;2023-05-25T08:55:30;100708.75;;;23.34;66.99
72961;BME280;61141;46.204;19.774;2023-05-25T08:58:45;100710.97;;;23.02;65.21
72961;BME280;61141;46.204;19.774;2023-05-25T09:02:06;100714.75;;;22.95;66.82
72961;BME280;61141;46.204;19.774;2023-05-25T09:05:12;100704.50;;;23.68;66.06
72961;BME280;61141;46.204;19.774;2023-05-25T09:08:16;100716.78;;;23.07;65.51
72961;BME280;61141;46.204;19.774;2023-05-25T09:11:19;100714.16;;;23.42;63.90
72961;BME280;61141;46.204;19.774;2023-05-25T09:14:41;100706.25;;;24.00;63.14
72961;BME280;61141;46.204;19.774;2023-05-25T09:17:49;100706.31;;;24.43;59.91
72961;BME280;61141;46.204;19.774;2023-05-25T09:20:52;100706.16;;;25.11;58.57
72961;BME280;61141;46.204;19.774;2023-05-25T09:23:58;100700.28;;;24.88;60.26
72961;BME280;61141;46.204;19.774;2023-05-25T09:27:02;100708.09;;;24.49;60.99
72961;BME280;61141;46.204;19.774;2023-05-25T09:30:08;100719.50;;;23.74;62.80
72961;BME280;61141;46.204;19.774;2023-05-25T09:33:11;100714.81;;;24.18;61.61
72961;BME280;61141;46.204;19.774;2023-05-25T09:36:15;100710.50;;;24.60;60.59
72961;BME280;61141;46.204;19.774;2023-05-25T09:39:20;100713.06;;;23.98;60.23
72961;BME280;61141;46.204;19.774;2023-05-25T09:42:23;100720.50;;;23.42;62.84
72961;BME280;61141;46.204;19.774;2023-05-25T09:45:27;100720.16;;;23.27;63.06
72961;BME280;61141;46.204;19.774;2023-05-25T09:48:30;100722.84;;;23.06;64.41
72961;BME280;61141;46.204;19.774;2023-05-25T09:51:37;100718.75;;;24.42;60.08
72961;BME280;61141;46.204;19.774;2023-05-25T09:54:44;100726.62;;;23.87;61.74
72961;BME280;61141;46.204;19.774;2023-05-25T09:57:52;100733.88;;;22.97;65.06
72961;BME280;61141;46.204;19.774;2023-05-25T10:00:55;100725.88;;;23.62;64.06
72961;BME280;61141;46.204;19.774;2023-05-25T10:03:59;100710.25;;;24.11;62.05
72961;BME280;61141;46.204;19.774;2023-05-25T10:07:07;100718.72;;;23.73;61.88
72961;BME280;61141;46.204;19.774;2023-05-25T10:10:14;100724.87;;;23.43;62.73
72961;BME280;61141;46.204;19.774;2023-05-25T10:13:20;100732.31;;;22.96;64.92
72961;BME280;61141;46.204;19.774;2023-05-25T10:16:26;100713.53;;;22.84;65.98
72961;BME280;61141;46.204;19.774;2023-05-25T10:19:40;100709.44;;;23.13;64.43
72961;BME280;61141;46.204;19.774;2023-05-25T10:22:51;100716.84;;;22.78;65.48
72961;BME280;61141;46.204;19.774;2023-05-25T10:25:59;100719.44;;;22.98;65.35
72961;BME280;61141;46.204;19.774;2023-05-25T10:29:06;100706.66;;;23.38;63.37
72961;BME280;61141;46.204;19.774;2023-05-25T10:32:10;100714.81;;;23.33;62.50
72961;BME280;61141;46.204;19.774;2023-05-25T10:35:15;100699.22;;;24.51;61.51
72961;BME280;61141;46.204;19.774;2023-05-25T10:38:19;100705.94;;;23.85;58.99
72961;BME280;61141;46.204;19.774;2023-05-25T10:41:22;100698.81;;;23.46;61.66
72961;BME280;61141;46.204;19.774;2023-05-25T10:44:25;100700.84;;;23.58;61.71
72961;BME280;61141;46.204;19.774;2023-05-25T10:47:29;100693.47;;;24.76;58.87
72961;BME280;61141;46.204;19.774;2023-05-25T10:50:35;100684.44;;;25.03;56.96
72961;BME280;61141;46.204;19.774;2023-05-25T10:53:43;100689.88;;;25.68;54.34
72961;BME280;61141;46.204;19.774;2023-05-25T10:57:09;100681.16;;;26.02;53.95
72961;BME280;61141;46.204;19.774;2023-05-25T11:00:13;100679.59;;;24.51;58.16
72961;BME280;61141;46.204;19.774;2023-05-25T11:03:17;100682.19;;;23.89;60.41
72961;BME280;61141;46.204;19.774;2023-05-25T11:09:57;100664.53;;;24.36;57.80
72961;BME280;61141;46.204;19.774;2023-05-25T11:22:43;100661.53;;;26.39;52.09
72961;BME280;61141;46.204;19.774;2023-05-25T11:25:46;100645.69;;;25.10;54.28
72961;BME280;61141;46.204;19.774;2023-05-25T11:28:50;100662.28;;;24.43;56.69
72961;BME280;61141;46.204;19.774;2023-05-25T11:31:54;100652.03;;;24.28;55.95
72961;BME280;61141;46.204;19.774;2023-05-25T11:34:57;100645.34;;;24.78;53.98
72961;BME280;61141;46.204;19.774;2023-05-25T11:38:04;100641.94;;;25.04;51.78
72961;BME280;61141;46.204;19.774;2023-05-25T11:41:15;100634.75;;;25.43;51.23
72961;BME280;61141;46.204;19.774;2023-05-25T11:44:28;100638.16;;;25.38;50.58
72961;BME280;61141;46.204;19.774;2023-05-25T11:47:31;100632.91;;;24.79;52.34
72961;BME280;61141;46.204;19.774;2023-05-25T11:50:37;100642.06;;;24.70;53.55
72961;BME280;61141;46.204;19.774;2023-05-25T11:53:41;100636.53;;;25.19;52.27
72961;BME280;61141;46.204;19.774;2023-05-25T11:56:45;100638.88;;;24.81;52.52
72961;BME280;61141;46.204;19.774;2023-05-25T11:59:49;100649.81;;;24.88;53.43
72961;BME280;61141;46.204;19.774;2023-05-25T12:02:53;100646.84;;;24.61;54.19
72961;BME280;61141;46.204;19.774;2023-05-25T12:05:57;100636.81;;;24.50;54.06
72961;BME280;61141;46.204;19.774;2023-05-25T12:09:01;100638.59;;;24.88;54.00
72961;BME280;61141;46.204;19.774;2023-05-25T12:12:04;100629.03;;;25.74;52.29
72961;BME280;61141;46.204;19.774;2023-05-25T12:15:09;100621.91;;;26.37;48.95
72961;BME280;61141;46.204;19.774;2023-05-25T12:18:13;100624.69;;;25.64;49.69
72961;BME280;61141;46.204;19.774;2023-05-25T12:21:16;100624.28;;;25.35;51.19
72961;BME280;61141;46.204;19.774;2023-05-25T12:24:20;100620.25;;;24.96;52.62
72961;BME280;61141;46.204;19.774;2023-05-25T12:27:22;100619.19;;;24.50;54.70
72961;BME280;61141;46.204;19.774;2023-05-25T12:30:28;100609.13;;;24.31;54.99
72961;BME280;61141;46.204;19.774;2023-05-25T12:33:31;100617.50;;;23.87;57.18
72961;BME280;61141;46.204;19.774;2023-05-25T12:36:39;100609.31;;;24.36;55.93
72961;BME280;61141;46.204;19.774;2023-05-25T12:39:41;100607.63;;;24.39;56.12
72961;BME280;61141;46.204;19.774;2023-05-25T12:42:45;100603.16;;;25.03;53.00
72961;BME280;61141;46.204;19.774;2023-05-25T12:45:47;100603.47;;;25.63;50.96
72961;BME280;61141;46.204;19.774;2023-05-25T12:48:50;100591.34;;;26.20;50.05
72961;BME280;61141;46.204;19.774;2023-05-25T12:51:54;100595.69;;;25.94;50.98
72961;BME280;61141;46.204;19.774;2023-05-25T12:54:57;100597.81;;;25.45;52.22
72961;BME280;61141;46.204;19.774;2023-05-25T12:58:03;100598.16;;;24.98;54.01
72961;BME280;61141;46.204;19.774;2023-05-25T13:01:08;100598.41;;;24.29;55.02
72961;BME280;61141;46.204;19.774;2023-05-25T13:04:10;100588.00;;;24.39;53.88
72961;BME280;61141;46.204;19.774;2023-05-25T13:07:13;100583.94;;;24.31;54.51
72961;BME280;61141;46.204;19.774;2023-05-25T13:10:17;100573.34;;;24.57;53.64
72961;BME280;61141;46.204;19.774;2023-05-25T13:13:20;100570.66;;;24.53;53.52
72961;BME280;61141;46.204;19.774;2023-05-25T13:16:23;100568.53;;;24.88;53.35
72961;BME280;61141;46.204;19.774;2023-05-25T13:19:27;100558.69;;;24.83;53.64
72961;BME280;61141;46.204;19.774;2023-05-25T13:22:30;100553.81;;;25.33;52.68
72961;BME280;61141;46.204;19.774;2023-05-25T13:25:34;100559.50;;;24.62;52.94
72961;BME280;61141;46.204;19.774;2023-05-25T13:28:37;100552.91;;;25.27;52.28
72961;BME280;61141;46.204;19.774;2023-05-25T13:31:41;100558.50;;;25.27;52.07
72961;BME280;61141;46.204;19.774;2023-05-25T13:34:44;100561.56;;;25.01;53.65
72961;BME280;61141;46.204;19.774;2023-05-25T13:37:47;100559.16;;;24.82;54.14
72961;BME280;61141;46.204;19.774;2023-05-25T13:40:50;100546.59;;;24.65;53.30
72961;BME280;61141;46.204;19.774;2023-05-25T13:44:13;100545.63;;;24.89;54.10
72961;BME280;61141;46.204;19.774;2023-05-25T13:47:38;100538.16;;;25.53;51.57
72961;BME280;61141;46.204;19.774;2023-05-25T13:51:05;100539.84;;;26.23;48.68
72961;BME280;61141;46.204;19.774;2023-05-25T13:54:28;100538.91;;;25.63;51.50
72961;BME280;61141;46.204;19.774;2023-05-25T13:57:51;100524.41;;;25.37;49.92
72961;BME280;61141;46.204;19.774;2023-05-25T14:00:54;100531.69;;;25.07;50.07
72961;BME280;61141;46.204;19.774;2023-05-25T14:03:57;100534.88;;;25.73;49.56
72961;BME280;61141;46.204;19.774;2023-05-25T14:07:02;100537.03;;;25.69;49.71
72961;BME280;61141;46.204;19.774;2023-05-25T14:10:05;100530.34;;;25.76;49.50
72961;BME280;61141;46.204;19.774;2023-05-25T14:13:08;100536.88;;;25.63;48.11
72961;BME280;61141;46.204;19.774;2023-05-25T14:16:11;100526.41;;;25.28;49.17
72961;BME280;61141;46.204;19.774;2023-05-25T14:19:14;100528.81;;;25.65;48.97
72961;BME280;61141;46.204;19.774;2023-05-25T14:22:18;100524.84;;;25.36;49.18
72961;BME280;61141;46.204;19.774;2023-05-25T14:25:21;100535.66;;;25.55;48.72
72961;BME280;61141;46.204;19.774;2023-05-25T14:28:24;100529.41;;;25.60;49.08
72961;BME280;61141;46.204;19.774;2023-05-25T14:31:27;100529.72;;;25.53;49.64
72961;BME280;61141;46.204;19.774;2023-05-25T14:34:30;100520.03;;;26.00;48.61
72961;BME280;61141;46.204;19.774;2023-05-25T14:37:33;100517.53;;;25.38;50.83
72961;BME280;61141;46.204;19.774;2023-05-25T14:40:36;100515.81;;;25.95;49.80
72961;BME280;61141;46.204;19.774;2023-05-25T14:43:38;100511.78;;;25.87;50.29
72961;BME280;61141;46.204;19.774;2023-05-25T14:46:41;100510.09;;;25.62;50.20
72961;BME280;61141;46.204;19.774;2023-05-25T14:49:44;100505.56;;;25.47;50.70
72961;BME280;61141;46.204;19.774;2023-05-25T14:52:47;100511.81;;;25.60;50.91
72961;BME280;61141;46.204;19.774;2023-05-25T14:55:50;100498.34;;;26.00;48.84
72961;BME280;61141;46.204;19.774;2023-05-25T14:58:53;100506.47;;;25.80;49.37
72961;BME280;61141;46.204;19.774;2023-05-25T15:01:56;100508.53;;;25.52;50.25
72961;BME280;61141;46.204;19.774;2023-05-25T15:04:59;100500.19;;;26.12;49.21
72961;BME280;61141;46.204;19.774;2023-05-25T15:08:02;100510.63;;;26.63;48.64
72961;BME280;61141;46.204;19.774;2023-05-25T15:11:06;100506.47;;;25.98;49.64
72961;BME280;61141;46.204;19.774;2023-05-25T15:14:09;100492.09;;;26.14;49.90
72961;BME280;61141;46.204;19.774;2023-05-25T15:17:12;100513.59;;;26.08;50.38
72961;BME280;61141;46.204;19.774;2023-05-25T15:20:15;100503.47;;;26.20;49.09
72961;BME280;61141;46.204;19.774;2023-05-25T15:23:18;100497.25;;;25.89;50.23
72961;BME280;61141;46.204;19.774;2023-05-25T15:26:20;100493.22;;;26.50;48.85
72961;BME280;61141;46.204;19.774;2023-05-25T15:29:25;100486.75;;;26.07;49.18
72961;BME280;61141;46.204;19.774;2023-05-25T15:32:28;100494.28;;;26.52;48.86
72961;BME280;61141;46.204;19.774;2023-05-25T15:35:31;100492.28;;;25.93;49.68
72961;BME280;61141;46.204;19.774;2023-05-25T15:38:34;100487.16;;;25.64;50.17
72961;BME280;61141;46.204;19.774;2023-05-25T15:41:37;100479.19;;;25.72;50.53
72961;BME280;61141;46.204;19.774;2023-05-25T15:44:39;100489.00;;;25.31;51.72
72961;BME280;61141;46.204;19.774;2023-05-25T15:47:42;100479.81;;;25.12;52.66
72961;BME280;61141;46.204;19.774;2023-05-25T15:50:45;100484.09;;;24.86;53.01
72961;BME280;61141;46.204;19.774;2023-05-25T15:53:48;100473.06;;;24.91;52.49
72961;BME280;61141;46.204;19.774;2023-05-25T15:56:51;100480.31;;;25.56;51.05
72961;BME280;61141;46.204;19.774;2023-05-25T15:59:54;100492.09;;;24.96;52.42
72961;BME280;61141;46.204;19.774;2023-05-25T16:02:56;100489.78;;;25.22;52.41
72961;BME280;61141;46.204;19.774;2023-05-25T16:06:00;100495.03;;;24.93;52.61
72961;BME280;61141;46.204;19.774;2023-05-25T16:09:03;100489.88;;;24.91;51.93
72961;BME280;61141;46.204;19.774;2023-05-25T16:12:06;100497.50;;;24.51;53.01
72961;BME280;61141;46.204;19.774;2023-05-25T16:15:09;100494.75;;;24.60;53.00
72961;BME280;61141;46.204;19.774;2023-05-25T16:18:12;100500.00;;;24.80;52.96
72961;BME280;61141;46.204;19.774;2023-05-25T16:21:15;100497.22;;;24.58;53.44
72961;BME280;61141;46.204;19.774;2023-05-25T16:24:18;100496.88;;;24.87;52.68
72961;BME280;61141;46.204;19.774;2023-05-25T16:27:20;100497.09;;;25.01;52.58
72961;BME280;61141;46.204;19.774;2023-05-25T16:30:23;100499.78;;;25.32;51.94
72961;BME280;61141;46.204;19.774;2023-05-25T16:33:26;100499.13;;;25.19;52.60
72961;BME280;61141;46.204;19.774;2023-05-25T16:36:29;100494.28;;;25.20;52.43
72961;BME280;61141;46.204;19.774;2023-05-25T16:39:32;100500.72;;;24.71;54.45
72961;BME280;61141;46.204;19.774;2023-05-25T16:42:35;100496.31;;;24.61;54.55
72961;BME280;61141;46.204;19.774;2023-05-25T16:45:38;100491.56;;;24.40;55.34
72961;BME280;61141;46.204;19.774;2023-05-25T16:48:41;100489.00;;;24.24;56.37
72961;BME280;61141;46.204;19.774;2023-05-25T16:51:44;100486.56;;;24.35;56.08
72961;BME280;61141;46.204;19.774;2023-05-25T16:54:47;100491.78;;;24.24;56.62
72961;BME280;61141;46.204;19.774;2023-05-25T16:57:49;100488.63;;;24.13;57.02
72961;BME280;61141;46.204;19.774;2023-05-25T17:00:52;100482.88;;;23.94;57.59
72961;BME280;61141;46.204;19.774;2023-05-25T17:03:55;100481.25;;;24.06;57.63
72961;BME280;61141;46.204;19.774;2023-05-25T17:06:58;100480.28;;;23.78;58.21
72961;BME280;61141;46.204;19.774;2023-05-25T17:10:01;100495.31;;;23.93;57.56
72961;BME280;61141;46.204;19.774;2023-05-25T17:13:04;100493.06;;;23.79;58.33
72961;BME280;61141;46.204;19.774;2023-05-25T17:16:07;100498.37;;;23.86;58.42
72961;BME280;61141;46.204;19.774;2023-05-25T17:19:10;100498.66;;;23.79;58.77
72961;BME280;61141;46.204;19.774;2023-05-25T17:22:16;100505.88;;;23.68;59.97
72961;BME280;61141;46.204;19.774;2023-05-25T17:25:19;100496.62;;;23.58;59.81
72961;BME280;61141;46.204;19.774;2023-05-25T17:28:22;100507.94;;;23.55;59.76
72961;BME280;61141;46.204;19.774;2023-05-25T17:31:25;100515.88;;;23.56;59.87
72961;BME280;61141;46.204;19.774;2023-05-25T17:34:29;100501.75;;;23.38;60.10
72961;BME280;61141;46.204;19.774;2023-05-25T17:37:32;100511.84;;;23.57;60.27
72961;BME280;61141;46.204;19.774;2023-05-25T17:40:35;100485.84;;;23.35;61.00
72961;BME280;61141;46.204;19.774;2023-05-25T17:43:38;100510.34;;;23.31;65.49
72961;BME280;61141;46.204;19.774;2023-05-25T17:46:40;100522.56;;;23.12;66.50
72961;BME280;61141;46.204;19.774;2023-05-25T17:49:44;100529.56;;;22.95;67.29